CheckWX is a tool to help pilots better visualize weather data.  It is not intended as a substitute for an official pre-flight weather briefing.

08:18:27 UTC

LQTZ TAF
Tuzla International Airport
Tuzla, Bosnia and Herzegovina
TAF COR LQTZ 210500Z 2106/2206 11006KT 9999 SCT040 TX16/2113Z TN05/2206Z PROB40 TEMPO 2201/2206 2500 BR PROB30 TEMPO 2203/2206 0200 FG VV001

Nov-21@
06:00 UTC

Nov-21 @ 06:00 UTC

Nov-22@
06:00 UTC

Nov-22 @ 06:00 UTC

TAF COR LQTZ 210500Z 2106/2206 11006KT 9999 SCT040 TX16/2113Z TN05/2206Z
Wind
  • 110° at 6 KTS
Cloud Levels
  • Scattered at 4,000' AGL

Nov-22@
01:00 UTC

Nov-22 @ 01:00 UTC

Nov-22@
06:00 UTC

Nov-22 @ 06:00 UTC

PROB40 TEMPO 2201/2206 2500 BR

Temporary - 40% Likelihood

Temporary - 40% Likelihood during this time.

Conditions
Mist

Nov-22@
03:00 UTC

Nov-22 @ 03:00 UTC

Nov-22@
06:00 UTC

Nov-22 @ 06:00 UTC

PROB30 TEMPO 2203/2206 0200 FG VV001

Temporary - 30% Likelihood

Temporary - 30% Likelihood during this time.

Conditions
Fog
Cloud Levels
  • Vertical visibility at 100' AGL